Time;durP1;ratioP1;P1;durP2;ratioP2;P2;SDS_P1;SDS_P2;PMS_P1;PMS_P2;Temp;Humidity;BMP_temperature;BMP_pressure;BME280_temperature;BME280_humidity;BME280_pressure;Samples;Min_cycle;Max_cycle;Signal;HPM_P1;HPM_P2
2023/04/20 00:01:53;;;;;;;7.97;4.82;;;;;;;9.24;59.86;93560.53;5064847;28;20017;-73
2023/04/20 00:04:19;;;;;;;12.63;4.65;;;;;;;9.29;60.45;93564.16;5064792;28;20027;-73
2023/04/20 00:06:44;;;;;;;9.48;5.07;;;;;;;9.26;60.66;93568.22;5063501;28;20040;-73
2023/04/20 00:09:14;;;;;;;10.57;4.97;;;;;;;9.24;60.48;93559.78;5063611;28;20221;-73
2023/04/20 00:11:39;;;;;;;9.60;4.20;;;;;;;9.20;60.75;93562.25;5064726;28;20045;-73
2023/04/20 00:14:05;;;;;;;6.70;4.78;;;;;;;9.23;60.81;93551.00;5064536;28;20013;-73
2023/04/20 00:16:31;;;;;;;7.82;5.22;;;;;;;9.27;60.92;93553.03;5064368;28;20029;-74
2023/04/20 00:18:58;;;;;;;10.25;5.20;;;;;;;9.21;61.00;93542.53;5064514;28;20021;-73
2023/04/20 00:21:24;;;;;;;11.10;4.90;;;;;;;9.22;61.02;93546.00;5064457;28;20017;-73
2023/04/20 00:23:50;;;;;;;8.00;5.38;;;;;;;9.22;61.14;93546.78;5064198;28;20027;-74
2023/04/20 00:26:16;;;;;;;8.18;5.47;;;;;;;9.21;60.82;93547.84;5064496;28;20032;-73
2023/04/20 00:28:42;;;;;;;8.23;4.20;;;;;;;9.19;60.90;93547.38;5063842;28;20052;-73
2023/04/20 00:31:08;;;;;;;13.15;4.78;;;;;;;9.22;60.83;93540.69;5064381;28;20070;-74
2023/04/20 00:33:34;;;;;;;7.65;5.03;;;;;;;9.18;61.37;93543.19;5064216;28;20021;-73
2023/04/20 00:35:59;;;;;;;10.55;5.18;;;;;;;9.14;61.78;93539.56;5064089;28;20017;-74
2023/04/20 00:38:25;;;;;;;7.28;4.38;;;;;;;9.15;61.55;93535.03;5062943;28;20027;-73
2023/04/20 00:40:52;;;;;;;9.27;5.10;;;;;;;9.17;61.52;93548.78;5064188;28;20070;-72
2023/04/20 00:43:19;;;;;;;16.05;4.72;;;;;;;9.09;61.48;93536.28;5063921;28;20025;-73
2023/04/20 00:45:45;;;;;;;7.75;4.93;;;;;;;9.14;61.75;93538.78;5063936;28;20021;-73
2023/04/20 00:48:11;;;;;;;6.82;4.80;;;;;;;9.15;61.55;93541.13;5064073;28;20261;-73
2023/04/20 00:50:39;;;;;;;9.18;4.80;;;;;;;9.07;62.02;93544.56;5063947;28;20413;-73
2023/04/20 00:53:08;;;;;;;11.73;5.22;;;;;;;9.08;62.19;93537.34;5063843;28;20263;-73
2023/04/20 00:55:36;;;;;;;7.80;5.28;;;;;;;9.15;62.21;93543.78;5063818;28;20029;-73
2023/04/20 00:58:02;;;;;;;7.45;4.93;;;;;;;9.21;62.11;93544.41;5063702;28;20047;-73
2023/04/20 01:00:27;;;;;;;8.85;5.22;;;;;;;9.22;62.02;93536.13;5063528;28;20020;-74
2023/04/20 01:02:53;;;;;;;8.85;4.53;;;;;;;9.21;62.12;93539.09;5063621;28;20044;-73
2023/04/20 01:05:19;;;;;;;12.82;5.38;;;;;;;9.11;62.65;93531.44;5063717;28;20063;-73
2023/04/20 01:07:44;;;;;;;8.98;5.85;;;;;;;9.03;63.65;93546.28;5063380;28;20029;-73
2023/04/20 01:10:10;;;;;;;8.45;5.20;;;;;;;8.91;64.06;93541.56;5063595;28;20025;-73
2023/04/20 01:12:36;;;;;;;14.45;5.50;;;;;;;8.80;64.59;93546.38;5063514;28;20104;-73
2023/04/20 01:15:04;;;;;;;8.85;5.63;;;;;;;8.81;65.24;93536.53;5063310;28;20020;-72
2023/04/20 01:17:29;;;;;;;12.20;5.32;;;;;;;8.77;65.18;93543.56;5063447;28;20044;-73
2023/04/20 01:19:55;;;;;;;10.50;5.30;;;;;;;8.71;65.24;93539.47;5063335;28;20016;-72
2023/04/20 01:22:20;;;;;;;9.70;5.75;;;;;;;8.74;65.84;93547.63;5063150;28;20307;-73
2023/04/20 01:24:46;;;;;;;9.88;5.50;;;;;;;8.81;65.53;93539.19;5063136;28;20020;-73
2023/04/20 01:27:15;;;;;;;10.00;5.70;;;;;;;8.84;65.50;93538.59;5063176;28;20035;-73
2023/04/20 01:29:41;;;;;;;12.55;5.80;;;;;;;8.84;65.77;93535.91;5062948;28;20052;-73
2023/04/20 01:32:07;;;;;;;10.57;6.13;;;;;;;8.84;65.90;93543.91;5062053;28;20037;-72
2023/04/20 01:34:32;;;;;;;9.95;6.22;;;;;;;8.80;66.43;93540.28;5063149;28;20021;-73
2023/04/20 01:36:58;;;;;;;12.07;5.95;;;;;;;8.80;66.49;93534.97;5062851;28;20123;-73
2023/04/20 01:39:24;;;;;;;9.10;6.32;;;;;;;8.78;66.24;93539.81;5062953;28;20029;-73
2023/04/20 01:41:50;;;;;;;13.32;6.18;;;;;;;8.74;66.38;93521.03;5062092;28;20049;-73
2023/04/20 01:44:15;;;;;;;9.68;6.13;;;;;;;8.64;66.62;93538.03;5062750;28;20021;-73
2023/04/20 01:46:41;;;;;;;9.38;5.50;;;;;;;8.67;66.83;93526.03;5061659;28;20182;-73
2023/04/20 01:49:07;;;;;;;12.05;6.05;;;;;;;8.67;66.71;93525.25;5063013;28;20028;-73
2023/04/20 01:51:33;;;;;;;10.48;5.55;;;;;;;8.76;67.10;93528.72;5062756;28;20102;-74
2023/04/20 01:53:59;;;;;;;12.18;5.95;;;;;;;8.83;66.47;93526.38;5062801;28;20147;-73
2023/04/20 01:56:25;;;;;;;10.35;6.13;;;;;;;8.90;65.83;93515.31;5062721;28;20025;-73
2023/04/20 01:58:50;;;;;;;8.27;5.43;;;;;;;8.93;65.59;93517.31;5062619;28;20369;-74
2023/04/20 02:01:16;;;;;;;12.10;5.80;;;;;;;8.98;65.46;93512.66;5062606;28;20044;-74
2023/04/20 02:03:41;;;;;;;8.65;5.40;;;;;;;9.03;65.63;93503.72;5062493;28;20299;-73
2023/04/20 02:06:07;;;;;;;9.57;5.55;;;;;;;9.09;65.66;93515.00;5062772;28;20031;-73
2023/04/20 02:08:33;;;;;;;10.38;6.05;;;;;;;9.07;65.69;93506.56;5062480;28;20020;-73
2023/04/20 02:10:58;;;;;;;11.48;6.47;;;;;;;9.08;65.68;93510.78;5062573;28;20051;-73
2023/04/20 02:13:24;;;;;;;11.40;7.00;;;;;;;9.12;65.58;93509.06;5062400;28;20270;-73
2023/04/20 02:15:50;;;;;;;11.15;6.43;;;;;;;9.09;65.29;93515.00;5062570;28;20028;-73
2023/04/20 02:18:15;;;;;;;9.45;6.05;;;;;;;9.06;65.53;93505.78;5062585;28;20033;-73
2023/04/20 02:20:41;;;;;;;12.27;5.85;;;;;;;9.08;65.31;93508.09;5062404;28;20043;-73
2023/04/20 02:23:07;;;;;;;12.27;6.22;;;;;;;9.04;65.44;93514.06;5062363;28;20028;-73
2023/04/20 02:25:32;;;;;;;12.00;6.03;;;;;;;9.05;65.60;93514.84;5062445;28;20028;-74
2023/04/20 02:27:58;;;;;;;12.15;6.10;;;;;;;9.11;65.63;93520.78;5062365;28;20088;-74
2023/04/20 02:30:23;;;;;;;10.55;6.65;;;;;;;9.08;65.57;93516.09;5062093;28;20028;-74
2023/04/20 02:32:49;;;;;;;10.73;5.85;;;;;;;9.07;65.06;93517.19;5062312;28;20017;-73
2023/04/20 02:35:14;;;;;;;16.42;6.28;;;;;;;9.08;64.95;93513.44;5062345;28;20096;-73
2023/04/20 02:37:40;;;;;;;13.20;5.95;;;;;;;9.00;64.70;93512.34;5062222;28;20027;-73
2023/04/20 02:40:07;;;;;;;16.05;6.60;;;;;;;9.00;64.38;93515.78;5062321;28;20047;-74
2023/04/20 02:42:32;;;;;;;12.80;6.22;;;;;;;9.02;64.12;93510.16;5062202;28;20021;-74
2023/04/20 02:44:57;;;;;;;8.10;5.43;;;;;;;9.01;64.14;93508.59;5062073;28;20031;-74
2023/04/20 02:47:26;;;;;;;9.75;5.88;;;;;;;9.00;64.06;93512.34;5062225;28;20044;-73
2023/04/20 02:49:51;;;;;;;8.13;5.63;;;;;;;9.01;63.88;93517.31;5062072;28;20107;-74
2023/04/20 02:52:17;;;;;;;12.63;5.50;;;;;;;9.02;63.46;93521.56;5063691;28;20021;-74
2023/04/20 02:54:42;;;;;;;9.65;5.53;;;;;;;8.97;63.44;93513.72;5066150;28;20031;-73
2023/04/20 02:57:09;;;;;;;9.13;5.40;;;;;;;8.94;63.30;93518.91;5066057;28;20023;-73
2023/04/20 02:59:35;;;;;;;8.70;5.95;;;;;;;8.85;63.51;93518.88;5065903;28;20025;-73
2023/04/20 03:02:00;;;;;;;11.68;5.82;;;;;;;8.75;63.94;93519.16;5065936;28;20029;-73
2023/04/20 03:04:26;;;;;;;8.88;5.40;;;;;;;8.68;64.11;93516.19;5065808;28;20063;-73
2023/04/20 03:06:52;;;;;;;13.75;6.35;;;;;;;8.59;64.71;93516.19;5065739;28;20017;-74
2023/04/20 03:09:17;;;;;;;11.90;6.07;;;;;;;8.61;64.72;93520.09;5065772;28;20113;-73
2023/04/20 03:11:44;;;;;;;13.95;5.90;;;;;;;8.59;64.96;93508.97;5065674;28;20358;-74
2023/04/20 03:14:09;;;;;;;9.70;6.43;;;;;;;8.59;65.20;93511.63;5064561;28;20329;-74
2023/04/20 03:16:35;;;;;;;10.63;5.82;;;;;;;8.58;65.81;93517.25;5065776;28;20048;-73
2023/04/20 03:19:01;;;;;;;10.50;5.88;;;;;;;8.64;65.52;93511.47;5065590;28;20021;-73
2023/04/20 03:21:26;;;;;;;9.80;6.88;;;;;;;8.64;65.74;93516.78;5065275;28;20025;-73
2023/04/20 03:23:51;;;;;;;11.27;6.43;;;;;;;8.64;65.73;93511.47;5065472;28;20094;-73
2023/04/20 03:26:17;;;;;;;13.32;6.13;;;;;;;8.67;65.52;93520.72;5065504;28;20021;-72
2023/04/20 03:28:42;;;;;;;10.13;5.55;;;;;;;8.63;62.93;93509.94;5065377;28;20219;-72
2023/04/20 03:31:08;;;;;;;8.07;4.88;;;;;;;8.59;62.18;93524.16;5065495;28;20025;-72
2023/04/20 03:33:33;;;;;;;9.27;5.22;;;;;;;8.60;62.00;93510.53;5065354;28;20020;-72
2023/04/20 03:35:59;;;;;;;9.88;5.53;;;;;;;8.64;61.85;93524.75;5065376;28;20025;-72
2023/04/20 03:38:24;;;;;;;9.13;5.90;;;;;;;8.61;61.91;93521.97;5065193;28;20390;-72
2023/04/20 03:40:50;;;;;;;8.80;5.63;;;;;;;8.64;61.57;93524.75;5065178;28;20024;-72
2023/04/20 03:43:15;;;;;;;10.52;6.13;;;;;;;8.71;61.80;93511.03;5064946;28;20021;-72
2023/04/20 03:45:40;;;;;;;11.32;6.30;;;;;;;8.75;62.91;93525.28;5065045;28;20023;-72
2023/04/20 03:48:06;;;;;;;11.68;5.82;;;;;;;8.76;62.01;93518.84;5065196;28;20100;-72
2023/04/20 03:50:31;;;;;;;10.95;5.78;;;;;;;8.74;62.25;93514.94;5065043;28;20021;-72
2023/04/20 03:52:57;;;;;;;9.95;6.28;;;;;;;8.71;62.84;93520.88;5064812;28;20012;-72
2023/04/20 03:55:22;;;;;;;12.38;6.53;;;;;;;8.68;62.90;93518.84;5064972;28;20100;-72
2023/04/20 03:57:47;;;;;;;15.32;6.07;;;;;;;8.79;62.66;93514.78;5064913;28;20045;-74
2023/04/20 04:00:13;;;;;;;9.43;6.47;;;;;;;8.77;62.65;93517.78;5064761;28;20092;-73
2023/04/20 04:02:39;;;;;;;11.90;6.93;;;;;;;8.77;63.29;93524.94;5064861;28;20033;-73
2023/04/20 04:05:05;;;;;;;14.80;7.40;;;;;;;8.81;63.45;93521.38;5063735;28;20215;-73
2023/04/20 04:07:30;;;;;;;9.70;6.43;;;;;;;8.85;63.14;93521.53;5064627;28;20031;-73
2023/04/20 04:09:56;;;;;;;11.00;6.43;;;;;;;8.88;63.68;93523.56;5064721;28;20083;-74
2023/04/20 04:12:21;;;;;;;11.30;6.78;;;;;;;8.89;63.82;93533.09;5064447;28;20045;-72
2023/04/20 04:14:47;;;;;;;12.75;7.28;;;;;;;8.82;64.27;93525.59;5064495;28;20017;-72
2023/04/20 04:17:13;;;;;;;14.50;6.70;;;;;;;8.80;64.53;93532.31;5064621;28;20100;-72
2023/04/20 04:19:39;;;;;;;10.98;7.18;;;;;;;8.83;64.49;93542.31;5064703;28;20192;-72
2023/04/20 04:22:05;;;;;;;13.73;8.30;;;;;;;8.78;64.79;93537.94;5064342;28;20027;-72
2023/04/20 04:24:32;;;;;;;14.05;7.68;;;;;;;8.81;64.77;93542.66;5064060;28;20044;-72
2023/04/20 04:26:57;;;;;;;15.15;8.25;;;;;;;8.76;65.04;93524.19;5063197;28;20024;-72
2023/04/20 04:29:24;;;;;;;13.93;8.63;;;;;;;8.82;64.83;93527.47;5064151;28;20031;-72
2023/04/20 04:31:51;;;;;;;15.13;8.05;;;;;;;8.90;64.86;93528.59;5062935;28;20330;-72
2023/04/20 04:34:17;;;;;;;14.40;8.07;;;;;;;8.86;64.82;93528.41;5064170;28;20025;-72
2023/04/20 04:36:43;;;;;;;19.85;9.00;;;;;;;8.87;64.97;93523.88;5064052;28;20025;-72
2023/04/20 04:39:08;;;;;;;14.57;8.35;;;;;;;8.91;65.08;93535.47;5064103;28;20025;-73
2023/04/20 04:41:35;;;;;;;14.52;8.68;;;;;;;8.84;64.78;93541.25;5064123;28;20025;-73
2023/04/20 04:44:01;;;;;;;15.55;8.80;;;;;;;8.86;64.71;93544.38;5063951;28;20099;-73
2023/04/20 04:46:27;;;;;;;14.45;9.88;;;;;;;8.84;65.17;93544.66;5063851;28;20016;-73
2023/04/20 04:48:52;;;;;;;14.80;8.32;;;;;;;8.90;64.75;93547.97;5063939;28;20119;-73
2023/04/20 04:51:18;;;;;;;13.18;8.35;;;;;;;8.77;65.21;93551.53;5063710;28;20092;-72
2023/04/20 04:53:45;;;;;;;18.13;7.72;;;;;;;8.77;65.19;93562.16;5063707;28;20013;-72
2023/04/20 04:56:12;;;;;;;13.23;7.47;;;;;;;8.84;65.01;93557.19;5063743;28;20032;-72
2023/04/20 04:58:38;;;;;;;13.90;7.18;;;;;;;8.82;64.95;93548.75;5063679;28;20021;-72
2023/04/20 05:01:03;;;;;;;19.40;7.80;;;;;;;8.85;65.04;93558.72;5063552;28;20041;-73
2023/04/20 05:03:29;;;;;;;21.25;9.00;;;;;;;8.91;65.13;93564.69;5063492;28;20184;-73
2023/04/20 05:05:55;;;;;;;13.43;7.80;;;;;;;8.87;64.88;93561.09;5063394;28;20103;-73
2023/04/20 05:08:23;;;;;;;17.95;8.05;;;;;;;8.96;65.35;93559.25;5063232;28;20029;-73
2023/04/20 05:10:48;;;;;;;14.23;7.93;;;;;;;8.98;64.92;93568.47;5063395;28;20318;-73
2023/04/20 05:13:14;;;;;;;13.15;8.38;;;;;;;8.91;64.78;93557.50;5063228;28;20044;-73
2023/04/20 05:15:39;;;;;;;17.35;7.88;;;;;;;8.90;64.92;93565.81;5063249;28;20017;-73
2023/04/20 05:18:05;;;;;;;16.92;9.13;;;;;;;8.86;65.18;93555.00;5062961;28;20028;-73
2023/04/20 05:20:30;;;;;;;14.38;8.60;;;;;;;8.85;65.23;93558.72;5063067;28;20016;-73
2023/04/20 05:22:56;;;;;;;14.57;8.73;;;;;;;8.83;65.50;93556.41;5063026;28;20028;-73
2023/04/20 05:25:21;;;;;;;17.25;9.43;;;;;;;8.88;65.61;93557.34;5063377;28;20071;-73
2023/04/20 05:27:46;;;;;;;18.45;9.38;;;;;;;8.90;65.58;93558.59;5063111;28;20044;-73
2023/04/20 05:30:12;;;;;;;14.00;8.80;;;;;;;8.94;65.24;93578.16;5062900;28;20025;-73
2023/04/20 05:32:37;;;;;;;14.18;8.90;;;;;;;8.96;65.15;93562.69;5063091;28;20090;-73
2023/04/20 05:35:03;;;;;;;14.45;8.27;;;;;;;8.93;65.46;93565.16;5062652;28;20215;-73
2023/04/20 05:37:29;;;;;;;16.75;9.00;;;;;;;8.89;65.91;93580.16;5061377;28;20028;-73
2023/04/20 05:39:54;;;;;;;16.77;9.57;;;;;;;9.01;65.74;93573.16;5062636;28;20055;-73
2023/04/20 05:42:19;;;;;;;18.67;9.07;;;;;;;9.02;66.12;93574.72;5062512;28;20025;-73
2023/04/20 05:44:45;;;;;;;15.10;9.40;;;;;;;8.95;66.36;93573.63;5062574;28;20319;-73
2023/04/20 05:47:10;;;;;;;14.88;9.45;;;;;;;9.02;66.59;93569.41;5062529;28;20361;-73
2023/04/20 05:49:36;;;;;;;17.30;8.77;;;;;;;8.95;67.28;93569.06;5062485;28;20376;-73
2023/04/20 05:52:05;;;;;;;15.95;10.23;;;;;;;8.93;66.88;93565.16;5062480;28;20095;-73
2023/04/20 05:54:30;;;;;;;19.48;10.23;;;;;;;8.99;68.19;93575.34;5062308;28;20100;-73
2023/04/20 05:56:59;;;;;;;19.20;9.80;;;;;;;8.97;67.30;93566.88;5062398;28;20048;-73
2023/04/20 05:59:25;;;;;;;16.25;9.18;;;;;;;9.01;67.57;93570.50;5062191;28;20029;-73
2023/04/20 06:01:51;;;;;;;18.02;10.52;;;;;;;8.94;67.64;93572.84;5062246;28;20060;-73
2023/04/20 06:04:16;;;;;;;18.38;10.20;;;;;;;8.89;67.69;93580.94;5062482;28;20028;-72
2023/04/20 06:06:42;;;;;;;19.45;9.57;;;;;;;8.82;67.71;93575.31;5062300;28;20373;-73
2023/04/20 06:09:07;;;;;;;15.40;9.98;;;;;;;8.87;68.41;93564.53;5061168;28;20020;-73
2023/04/20 06:11:33;;;;;;;16.20;9.70;;;;;;;8.83;69.11;93571.53;5062248;28;20116;-73
2023/04/20 06:13:58;;;;;;;15.10;9.48;;;;;;;8.84;69.00;93570.47;5062328;28;20017;-72
2023/04/20 06:16:24;;;;;;;16.02;9.82;;;;;;;8.76;70.29;93574.66;5062218;28;20024;-72
2023/04/20 06:18:49;;;;;;;18.45;10.65;;;;;;;8.77;71.32;93580.75;5062202;28;20021;-72
2023/04/20 06:21:16;;;;;;;21.38;11.70;;;;;;;8.79;72.09;93576.72;5062440;28;20262;-72
2023/04/20 06:23:43;;;;;;;17.83;10.68;;;;;;;8.78;70.53;93577.03;5062110;28;20257;-76
2023/04/20 06:26:09;;;;;;;17.90;10.70;;;;;;;8.78;71.12;93579.69;5062036;28;20196;-75
2023/04/20 06:28:35;;;;;;;15.38;9.52;;;;;;;8.83;69.69;93582.19;5062050;28;20028;-75
2023/04/20 06:31:02;;;;;;;18.40;10.73;;;;;;;8.93;71.18;93589.09;5062015;28;20048;-74
2023/04/20 06:33:27;;;;;;;19.52;10.93;;;;;;;8.98;70.42;93581.75;5062125;28;20315;-76
2023/04/20 06:35:55;;;;;;;18.73;10.07;;;;;;;9.08;68.97;93582.56;5062103;28;20033;-75
2023/04/20 06:38:21;;;;;;;17.13;9.38;;;;;;;9.11;68.44;93581.94;5062242;28;20025;-75
2023/04/20 06:40:47;;;;;;;17.27;10.23;;;;;;;9.17;68.58;93576.16;5062241;28;20223;-75
2023/04/20 06:43:12;;;;;;;13.23;9.20;;;;;;;9.30;67.98;93585.13;5060887;28;20110;-75
2023/04/20 06:45:39;;;;;;;14.77;9.77;;;;;;;9.32;67.44;93588.25;5062211;28;20028;-74
2023/04/20 06:48:05;;;;;;;14.82;9.15;;;;;;;9.32;67.16;93588.25;5061831;28;20025;-76
2023/04/20 06:50:30;;;;;;;16.17;9.40;;;;;;;9.36;66.92;93594.50;5061922;28;20021;-75
2023/04/20 06:52:55;;;;;;;17.50;10.32;;;;;;;9.36;67.94;93594.50;5062050;28;20306;-76
2023/04/20 06:55:21;;;;;;;20.45;10.43;;;;;;;9.39;67.15;93593.88;5061928;28;20254;-76
2023/04/20 06:57:46;;;;;;;18.60;9.10;;;;;;;9.34;66.73;93598.56;5061809;28;20063;-77
2023/04/20 07:00:12;;;;;;;15.00;8.98;;;;;;;9.40;66.68;93597.31;5061949;28;20090;-76
2023/04/20 07:02:45;;;;;;;18.83;8.13;;;;;;;9.35;66.81;93600.91;5062014;28;20092;-77
2023/04/20 07:05:11;;;;;;;16.15;8.02;;;;;;;9.26;68.12;93597.47;5062106;28;20017;-76
2023/04/20 07:07:37;;;;;;;15.02;8.80;;;;;;;9.22;68.78;93610.59;5061955;28;20134;-76
2023/04/20 07:10:03;;;;;;;16.48;8.95;;;;;;;9.08;69.04;93611.78;5061736;28;20024;-77
2023/04/20 07:12:29;;;;;;;13.07;7.90;;;;;;;9.04;68.27;93609.78;5061723;28;20045;-76
2023/04/20 07:14:54;;;;;;;13.93;8.77;;;;;;;9.08;69.12;93611.78;5061804;28;20055;-76
2023/04/20 07:17:20;;;;;;;16.73;8.65;;;;;;;9.11;68.29;93604.00;5061594;28;20017;-76
2023/04/20 07:19:45;;;;;;;11.88;7.68;;;;;;;9.20;67.80;93612.00;5061914;28;20322;-76
2023/04/20 07:22:11;;;;;;;14.57;8.50;;;;;;;9.33;66.77;93608.41;5061835;28;20016;-76
2023/04/20 07:24:36;;;;;;;13.50;7.60;;;;;;;9.45;66.13;93607.81;5061888;28;20021;-77
2023/04/20 07:27:02;;;;;;;14.18;7.97;;;;;;;9.43;65.54;93602.03;5061794;28;20055;-77
2023/04/20 07:29:27;;;;;;;13.23;7.85;;;;;;;9.42;65.60;93598.59;5061810;28;20224;-77
2023/04/20 07:31:53;;;;;;;11.93;7.85;;;;;;;9.54;65.12;93616.56;5061629;28;20303;-76
2023/04/20 07:34:18;;;;;;;12.63;8.68;;;;;;;9.68;66.12;93605.00;5061541;28;20218;-77
2023/04/20 07:36:44;;;;;;;16.35;8.70;;;;;;;9.76;65.18;93609.53;5061646;28;20032;-76
2023/04/20 07:39:09;;;;;;;15.00;8.38;;;;;;;9.94;64.53;93600.47;5062915;28;20051;-73
2023/04/20 07:41:35;;;;;;;12.55;8.32;;;;;;;10.04;63.89;93602.78;5064891;28;20095;-73
2023/04/20 07:44:00;;;;;;;14.10;8.20;;;;;;;10.17;63.17;93602.94;5064991;28;20134;-73
2023/04/20 07:46:27;;;;;;;15.10;8.02;;;;;;;10.23;62.67;93604.31;5065100;28;20032;-74
2023/04/20 07:48:52;;;;;;;13.30;8.40;;;;;;;10.31;62.19;93597.44;5064853;28;20104;-74
2023/04/20 07:51:18;;;;;;;13.10;8.02;;;;;;;10.30;61.84;93598.53;5064907;28;20043;-74
2023/04/20 07:53:43;;;;;;;14.00;7.65;;;;;;;10.40;61.70;93619.50;5064856;28;20021;-73
2023/04/20 07:56:09;;;;;;;14.13;8.30;;;;;;;10.37;61.67;93588.19;5064768;28;20021;-73
2023/04/20 07:58:37;;;;;;;11.85;8.15;;;;;;;10.40;60.93;93588.34;5064705;28;20055;-72
2023/04/20 08:01:03;;;;;;;18.33;8.48;;;;;;;10.40;61.09;93600.88;5064834;28;20040;-72
2023/04/20 08:03:28;;;;;;;18.90;8.40;;;;;;;10.46;62.10;93615.56;5064613;28;20081;-72
2023/04/20 08:05:53;;;;;;;13.82;8.07;;;;;;;10.47;61.34;93603.84;5064756;28;20207;-73
2023/04/20 08:08:19;;;;;;;13.65;7.97;;;;;;;10.54;60.95;93619.31;5064699;28;20031;-72
2023/04/20 08:10:45;;;;;;;12.10;8.00;;;;;;;10.48;60.51;93596.63;5064687;28;20017;-73
2023/04/20 08:13:10;;;;;;;14.25;7.65;;;;;;;10.59;60.39;93606.63;5064386;28;20041;-71
2023/04/20 08:15:35;;;;;;;12.88;7.15;;;;;;;10.68;60.34;93605.81;5063461;28;20028;-72
2023/04/20 08:18:01;;;;;;;14.70;8.55;;;;;;;10.88;60.69;93607.00;5064363;28;20028;-72
2023/04/20 08:20:26;;;;;;;13.68;8.65;;;;;;;10.96;60.04;93600.84;5064345;28;20040;-72
2023/04/20 08:22:52;;;;;;;13.23;8.90;;;;;;;10.95;59.99;93609.91;5064326;28;20056;-72
2023/04/20 08:25:17;;;;;;;12.02;7.75;;;;;;;10.91;60.13;93601.81;5064186;28;20045;-72
2023/04/20 08:27:43;;;;;;;12.23;8.80;;;;;;;10.89;59.83;93604.00;5064149;28;20323;-73
2023/04/20 08:30:09;;;;;;;12.02;8.23;;;;;;;10.82;60.15;93603.72;5064306;28;20028;-72
2023/04/20 08:32:34;;;;;;;16.48;9.00;;;;;;;10.74;60.73;93605.31;5064026;28;20029;-72
2023/04/20 08:34:59;;;;;;;17.58;8.73;;;;;;;10.68;60.83;93606.59;5064091;28;20214;-72
2023/04/20 08:37:25;;;;;;;11.25;7.07;;;;;;;10.58;60.80;93601.59;5064115;28;20029;-72
2023/04/20 08:39:51;;;;;;;14.82;8.52;;;;;;;10.62;60.86;93611.31;5064003;28;20361;-72
2023/04/20 08:42:16;;;;;;;15.30;8.15;;;;;;;10.64;61.08;93606.47;5063915;28;20098;-71
2023/04/20 08:44:42;;;;;;;18.50;9.32;;;;;;;10.67;61.41;93606.91;5063762;28;20114;-71
2023/04/20 08:47:10;;;;;;;13.57;7.88;;;;;;;10.68;60.76;93606.59;5064184;28;20720;-72
2023/04/20 08:49:38;;;;;;;22.30;10.10;;;;;;;10.72;60.99;93625.38;5063339;28;20349;-72
2023/04/20 08:52:04;;;;;;;11.82;8.18;;;;;;;10.67;61.79;93601.59;5062450;28;20021;-72
2023/04/20 08:54:30;;;;;;;20.58;8.52;;;;;;;10.77;61.37;93611.91;5062640;28;20222;-72
2023/04/20 08:56:55;;;;;;;16.98;8.75;;;;;;;10.78;61.46;93613.44;5063581;28;20051;-71
2023/04/20 08:59:21;;;;;;;12.75;7.63;;;;;;;10.78;61.47;93610.78;5063625;28;20219;-72
2023/04/20 09:01:47;;;;;;;13.30;8.38;;;;;;;10.81;60.65;93618.16;5063561;28;20039;-73
2023/04/20 09:04:25;;;;;;;14.13;8.35;;;;;;;10.69;61.21;93618.81;5063497;28;20045;-71
2023/04/20 09:06:55;;;;;;;11.82;7.47;;;;;;;10.57;61.64;93630.13;5063270;28;20024;-72
2023/04/20 09:09:22;;;;;;;13.55;9.07;;;;;;;10.46;62.12;93626.22;5063395;28;20044;-71
2023/04/20 09:12:02;;;;;;;12.93;8.45;;;;;;;10.34;62.27;93624.25;5063103;28;20448;-72
2023/04/20 09:14:28;;;;;;;16.55;9.32;;;;;;;10.34;62.79;93626.09;5063456;28;20021;-72
2023/04/20 09:16:59;;;;;;;13.50;8.93;;;;;;;10.27;62.45;93637.22;5063141;28;20017;-71
2023/04/20 09:19:26;;;;;;;18.08;9.52;;;;;;;10.35;62.72;93627.69;5063106;28;20029;-71
2023/04/20 09:21:53;;;;;;;12.35;8.07;;;;;;;10.46;62.95;93617.47;5063230;28;20069;-71
2023/04/20 09:24:29;;;;;;;19.60;9.27;;;;;;;10.58;62.62;93623.72;5063328;28;20084;-71
2023/04/20 09:26:55;;;;;;;17.25;8.90;;;;;;;10.71;62.11;93616.63;5063203;28;20045;-71
2023/04/20 09:29:22;;;;;;;15.52;7.72;;;;;;;10.78;60.69;93613.44;5063112;28;20017;-71
2023/04/20 09:31:49;;;;;;;13.07;8.15;;;;;;;10.93;60.78;93614.78;5063258;28;20017;-71
2023/04/20 09:34:15;;;;;;;12.13;7.95;;;;;;;10.98;60.94;93610.06;5063004;28;20012;-73
2023/04/20 09:36:45;;;;;;;15.18;8.45;;;;;;;11.17;60.25;93609.69;5063134;28;20044;-72
2023/04/20 09:39:23;;;;;;;14.27;8.82;;;;;;;11.35;59.24;93601.56;5063140;28;20353;-71
2023/04/20 09:41:51;;;;;;;18.17;9.10;;;;;;;11.47;59.43;93600.84;5062981;28;20227;-71
2023/04/20 09:44:17;;;;;;;10.52;7.78;;;;;;;11.61;58.72;93596.03;5062898;28;20025;-72
2023/04/20 09:46:44;;;;;;;12.48;8.15;;;;;;;11.68;57.77;93588.28;5062898;28;20021;-72
2023/04/20 09:49:11;;;;;;;12.15;7.40;;;;;;;11.78;57.67;93589.78;5062945;28;20025;-70
2023/04/20 09:51:40;;;;;;;12.55;8.02;;;;;;;11.81;57.68;93594.47;5062867;28;20032;-71
2023/04/20 09:54:06;;;;;;;11.80;8.10;;;;;;;11.89;57.59;93591.00;5062790;28;20021;-71
2023/04/20 09:56:33;;;;;;;12.75;7.40;;;;;;;12.08;57.34;93603.09;5062716;28;20025;-72
2023/04/20 09:59:00;;;;;;;14.13;7.88;;;;;;;12.26;57.40;93588.44;5061597;28;20066;-73
2023/04/20 10:01:34;;;;;;;14.52;7.82;;;;;;;12.44;56.63;93589.06;5061749;28;20032;-72
2023/04/20 10:04:01;;;;;;;15.48;7.07;;;;;;;12.50;55.58;93597.66;5062505;28;20104;-76
2023/04/20 10:06:29;;;;;;;10.93;7.20;;;;;;;12.55;55.15;93578.72;5061435;28;20233;-78
2023/04/20 10:08:55;;;;;;;15.35;8.30;;;;;;;12.58;54.92;93583.41;5062519;28;20035;-77
2023/04/20 10:11:35;;;;;;;13.63;8.25;;;;;;;12.68;54.46;93587.53;5060802;28;20214;-77
2023/04/20 10:14:16;;;;;;;11.35;7.60;;;;;;;12.43;55.07;93574.91;5060480;28;20278;-76
2023/04/20 10:16:45;;;;;;;9.35;6.53;;;;;;;12.56;54.90;93586.41;5062383;28;20033;-77
2023/04/20 10:19:11;;;;;;;10.73;6.78;;;;;;;12.62;54.65;93570.94;5062532;28;20024;-76
2023/04/20 10:21:46;;;;;;;11.75;7.25;;;;;;;12.72;55.06;93575.06;5062409;28;20342;-77
2023/04/20 10:24:12;;;;;;;12.60;7.43;;;;;;;12.74;54.00;93576.31;5062163;28;20036;-77
2023/04/20 10:26:44;;;;;;;16.20;7.30;;;;;;;12.86;53.88;93572.84;5062537;28;20052;-77
2023/04/20 10:29:11;;;;;;;10.07;6.82;;;;;;;12.81;54.31;93567.72;5062429;28;20051;-77
2023/04/20 10:31:38;;;;;;;10.35;7.15;;;;;;;12.99;53.41;93577.09;5062449;28;20029;-77
2023/04/20 10:34:05;;;;;;;9.02;6.65;;;;;;;13.10;52.90;93573.97;5062124;28;20077;-77
2023/04/20 10:36:33;;;;;;;12.23;6.97;;;;;;;13.15;52.59;93573.75;5062132;28;20253;-76
2023/04/20 10:39:04;;;;;;;9.52;6.32;;;;;;;13.11;52.34;93572.84;5061978;28;20085;-76
2023/04/20 10:41:30;;;;;;;11.07;7.55;;;;;;;13.02;53.08;93563.03;5062291;28;20229;-77
2023/04/20 10:44:05;;;;;;;10.75;6.45;;;;;;;13.00;52.82;93559.91;5060810;28;20039;-77
2023/04/20 10:46:31;;;;;;;15.73;7.60;;;;;;;12.98;54.70;93562.13;5061974;28;20029;-77
2023/04/20 10:49:00;;;;;;;16.90;7.63;;;;;;;13.14;53.54;93566.81;5061916;28;20072;-77
2023/04/20 10:51:27;;;;;;;11.27;6.70;;;;;;;13.23;53.07;93564.81;5062157;28;20024;-77
2023/04/20 10:54:04;;;;;;;12.55;6.78;;;;;;;13.32;52.53;93562.03;5062091;28;20031;-77
2023/04/20 10:56:56;;;;;;;11.27;7.10;;;;;;;13.29;52.43;93563.50;5062027;28;20033;-77
2023/04/20 10:59:23;;;;;;;18.00;7.63;;;;;;;13.35;52.87;93559.47;5060786;28;20041;-77
2023/04/20 11:01:50;;;;;;;8.38;6.47;;;;;;;13.35;52.29;93551.44;5061814;28;20263;-77
2023/04/20 11:04:16;;;;;;;10.90;7.00;;;;;;;13.37;53.00;93554.56;5061771;28;20025;-77
2023/04/20 11:06:43;;;;;;;10.63;6.28;;;;;;;13.37;52.31;93557.25;5060753;28;20048;-77
2023/04/20 11:09:25;;;;;;;12.23;6.93;;;;;;;13.39;51.32;93560.38;5061937;28;20215;-77
2023/04/20 11:12:16;;;;;;;13.55;6.22;;;;;;;13.46;52.74;93551.75;5061642;28;20056;-77
2023/04/20 11:14:56;;;;;;;10.63;6.38;;;;;;;13.42;52.79;93551.66;5064709;28;20025;-77
2023/04/20 11:17:36;;;;;;;10.07;5.78;;;;;;;13.56;52.85;93555.88;5064551;28;20222;-77
2023/04/20 11:20:07;;;;;;;8.95;6.20;;;;;;;13.55;51.97;93547.03;5065816;28;20078;-77
2023/04/20 11:22:33;;;;;;;10.77;5.93;;;;;;;13.53;51.26;93540.47;5065642;28;20043;-77
2023/04/20 11:25:06;;;;;;;9.02;6.38;;;;;;;13.55;51.80;93541.69;5065563;28;20025;-77
2023/04/20 11:27:33;;;;;;;12.18;6.20;;;;;;;13.66;51.18;93544.69;5065521;28;20033;-77
2023/04/20 11:29:58;;;;;;;10.25;5.70;;;;;;;13.78;50.55;93544.63;5065531;28;20055;-77